Flagstaff, Arizona
Current Conditions -  °F | °C
As of 2:57 AM on Friday 24 Oct 2014 (Local Time) from KFLG Reporting Station
Clear Clear  
Wind Chill: 34°   Ceiling: Unl
Heat Index: 34°   Visibility: 10mi
Dew Point: 29°   Wind: 0mph
Humidity: 82%   Direction: NA
Pressure: 30.35"   Gusts: NA
Location:  35.2°N, 111.65°W
Report Text: KFLG 240957Z AUTO 00000KT 10SM CLR 01/M02 A3035 RMK AO2 SLP211 T00111017 TSNO
Loading
Personal Weather Stations






























Interactive Weather Map
Tropical Storm Tracking
New forecast layout! Learn more

10-Day Weather Forecast

Advertisements
Track Severe Weather on mobile